Time;durP1;ratioP1;P1;durP2;ratioP2;P2;SDS_P1;SDS_P2;PMS_P1;PMS_P2;Temp;Humidity;BMP_temperature;BMP_pressure;BME280_temperature;BME280_humidity;BME280_pressure;Samples;Min_cycle;Max_cycle;Signal;HPM_P1;HPM_P2
2021/05/25 00:01:58;;;;;;;3.60;3.50;;;;;;;8.95;70.54;100579.25;4383181;32;20081;-67
2021/05/25 00:04:23;;;;;;;3.70;3.60;;;;;;;8.92;70.65;100582.00;4386855;32;20076;-67
2021/05/25 00:06:49;;;;;;;3.53;3.42;;;;;;;8.90;71.68;100583.84;4381516;32;20065;-67
2021/05/25 00:09:14;;;;;;;4.20;4.00;;;;;;;8.89;71.27;100582.16;4388200;32;20062;-68
2021/05/25 00:11:40;;;;;;;3.80;3.70;;;;;;;8.96;71.17;100586.16;4382919;32;20107;-68
2021/05/25 00:14:06;;;;;;;3.50;3.40;;;;;;;8.91;71.07;100588.16;4382671;32;20452;-67
2021/05/25 00:16:31;;;;;;;3.97;3.78;;;;;;;8.90;71.32;100583.84;4381278;32;20580;-67
2021/05/25 00:18:57;;;;;;;3.62;3.53;;;;;;;8.91;71.18;100580.31;4384214;32;20147;-67
2021/05/25 00:21:22;;;;;;;3.80;3.70;;;;;;;8.92;72.05;100582.87;4383964;32;20197;-68
2021/05/25 00:23:48;;;;;;;3.58;3.47;;;;;;;8.90;70.90;100583.84;4384445;32;20597;-67
2021/05/25 00:26:13;;;;;;;3.70;3.60;;;;;;;8.91;71.71;100588.16;4387357;32;20164;-67
2021/05/25 00:28:38;;;;;;;3.70;3.60;;;;;;;8.89;71.21;100585.63;4381580;32;20061;-67
2021/05/25 00:31:04;;;;;;;3.58;3.47;;;;;;;8.92;70.98;100588.09;4384800;32;20070;-67
2021/05/25 00:33:29;;;;;;;3.67;3.58;;;;;;;8.97;70.83;100587.88;4376655;32;20576;-67
2021/05/25 00:35:55;;;;;;;3.60;3.50;;;;;;;8.96;71.34;100594.03;4383550;32;20077;-67
2021/05/25 00:38:21;;;;;;;3.62;3.53;;;;;;;8.94;71.06;100591.50;4377261;32;20109;-68
2021/05/25 00:40:46;;;;;;;3.60;3.50;;;;;;;8.97;69.65;100593.94;4383100;32;20065;-67
2021/05/25 00:43:11;;;;;;;3.65;3.55;;;;;;;8.95;70.83;100587.94;4379401;32;20082;-67
2021/05/25 00:45:37;;;;;;;3.55;3.45;;;;;;;8.94;70.15;100595.88;4373205;32;20070;-67
2021/05/25 00:48:02;;;;;;;3.50;3.40;;;;;;;8.92;70.10;100595.09;4385150;32;20568;-67
2021/05/25 00:50:29;;;;;;;3.40;3.30;;;;;;;8.89;69.41;100593.47;4376967;32;20595;-67
2021/05/25 00:53:01;;;;;;;3.60;3.50;;;;;;;8.85;69.24;100618.09;4384181;32;20147;-69
2021/05/25 00:55:35;;;;;;;4.25;3.83;;;;;;;8.84;68.66;100590.25;4386314;32;20077;-67
2021/05/25 00:58:02;;;;;;;3.60;3.50;;;;;;;8.77;68.99;100599.28;4369712;32;20104;-67
2021/05/25 01:00:32;;;;;;;3.70;3.60;;;;;;;8.70;69.40;100606.56;4381349;32;20080;-67
2021/05/25 01:02:57;;;;;;;3.62;3.53;;;;;;;8.65;68.68;100594.62;4373945;32;20073;-67
2021/05/25 01:05:23;;;;;;;3.60;3.50;;;;;;;8.59;68.57;100604.44;4383628;32;20452;-68
2021/05/25 01:07:48;;;;;;;3.42;3.33;;;;;;;8.57;68.84;100608.03;4371294;32;20088;-67
2021/05/25 01:10:15;;;;;;;3.50;3.40;;;;;;;8.58;67.85;100601.91;4374688;32;20325;-67
2021/05/25 01:12:54;;;;;;;3.50;3.40;;;;;;;8.44;69.21;100602.53;4400608;32;20461;-67
2021/05/25 01:15:20;;;;;;;3.53;3.42;;;;;;;8.01;69.24;100539.03;4394907;32;20069;-69
2021/05/25 01:17:45;;;;;;;3.60;3.50;;;;;;;8.34;68.93;100614.28;4370068;32;20070;-67
2021/05/25 01:20:11;;;;;;;3.62;3.53;;;;;;;8.29;69.18;100613.63;4381632;32;20077;-67
2021/05/25 01:22:37;;;;;;;3.60;3.50;;;;;;;8.22;69.60;100615.66;4386816;32;20682;-68
2021/05/25 01:25:12;;;;;;;4.03;3.83;;;;;;;8.22;69.81;100620.03;4400207;32;20083;-68
2021/05/25 01:27:38;;;;;;;3.70;3.60;;;;;;;8.15;70.35;100622.06;4381896;32;20603;-67
2021/05/25 01:30:11;;;;;;;3.30;3.20;;;;;;;8.17;69.72;100613.22;4385821;32;20149;-67
2021/05/25 01:32:36;;;;;;;3.70;3.60;;;;;;;8.14;69.80;100602.09;4375377;32;20100;-67
2021/05/25 01:35:02;;;;;;;3.30;3.20;;;;;;;8.13;69.61;100610.81;4384381;32;20882;-67
2021/05/25 01:37:28;;;;;;;3.50;3.40;;;;;;;8.08;70.58;100615.38;4394297;32;20135;-67
2021/05/25 01:39:55;;;;;;;3.60;3.50;;;;;;;8.09;70.32;100607.50;4398754;32;20084;-67
2021/05/25 01:42:20;;;;;;;3.40;3.30;;;;;;;8.11;69.54;100604.81;4384588;32;20461;-67
2021/05/25 01:44:46;;;;;;;3.30;3.20;;;;;;;8.14;70.18;100607.31;4400320;32;20114;-67
2021/05/25 01:47:11;;;;;;;3.50;3.40;;;;;;;8.23;70.59;100609.50;4394982;32;20288;-67
2021/05/25 01:49:39;;;;;;;3.40;3.30;;;;;;;8.28;69.72;100601.44;4390161;32;20065;-67
2021/05/25 01:52:04;;;;;;;3.42;3.33;;;;;;;8.32;69.07;100603.03;4383106;32;20880;-67
2021/05/25 01:54:29;;;;;;;3.35;3.25;;;;;;;8.28;69.74;100597.09;4386029;32;20123;-67
2021/05/25 01:56:55;;;;;;;3.83;3.70;;;;;;;8.23;69.58;100604.28;4362979;32;20087;-66
2021/05/25 01:59:20;;;;;;;3.50;3.40;;;;;;;8.15;69.79;100606.37;4379154;32;20086;-67
2021/05/25 02:01:46;;;;;;;3.60;3.50;;;;;;;7.98;69.99;100591.44;4383060;32;20080;-67
2021/05/25 02:04:11;;;;;;;3.47;3.37;;;;;;;7.99;70.83;100614.88;4381878;32;20752;-67
2021/05/25 02:06:36;;;;;;;3.30;3.20;;;;;;;7.87;70.86;100585.81;4387217;32;20066;-67
2021/05/25 02:09:02;;;;;;;3.40;3.30;;;;;;;8.07;71.21;100616.31;4380570;32;20065;-67
2021/05/25 02:11:28;;;;;;;3.50;3.40;;;;;;;8.17;70.86;100615.00;4388446;32;20957;-67
2021/05/25 02:13:53;;;;;;;4.05;3.85;;;;;;;8.27;69.40;100613.69;4382370;32;20077;-67
2021/05/25 02:16:18;;;;;;;3.40;3.30;;;;;;;8.33;69.15;100618.62;4387711;32;20740;-67
2021/05/25 02:18:47;;;;;;;3.65;3.55;;;;;;;8.37;69.51;100616.75;4388913;32;20057;-67
2021/05/25 02:21:15;;;;;;;3.47;3.37;;;;;;;8.44;69.16;100612.12;4399615;32;20765;-67
2021/05/25 02:23:41;;;;;;;3.55;3.45;;;;;;;8.44;69.13;100617.34;4406185;32;20084;-69
2021/05/25 02:26:06;;;;;;;3.40;3.30;;;;;;;8.48;68.57;100614.53;4383683;32;20116;-67
2021/05/25 02:28:32;;;;;;;3.50;3.40;;;;;;;8.50;69.11;100617.94;4390257;32;20163;-67
2021/05/25 02:30:57;;;;;;;3.50;3.40;;;;;;;8.49;68.16;100615.38;4384458;32;20732;-67
2021/05/25 02:33:23;;;;;;;3.50;3.40;;;;;;;8.51;68.48;100626.63;4387897;32;20058;-67
2021/05/25 02:35:50;;;;;;;4.30;4.10;;;;;;;8.53;67.58;100620.41;4402931;32;20184;-67
2021/05/25 02:38:15;;;;;;;3.70;3.60;;;;;;;8.52;67.48;100626.56;4391888;32;20060;-67
2021/05/25 02:40:45;;;;;;;3.50;3.40;;;;;;;8.55;67.16;100622.94;4403269;32;20077;-68
2021/05/25 02:43:11;;;;;;;3.50;3.40;;;;;;;8.50;67.28;100627.53;4391601;32;20091;-67
2021/05/25 02:45:36;;;;;;;3.60;3.50;;;;;;;8.47;67.84;100620.69;4400530;32;20212;-67
2021/05/25 02:48:02;;;;;;;3.60;3.50;;;;;;;8.47;67.99;100633.75;4391502;32;20100;-68
2021/05/25 02:50:28;;;;;;;3.50;3.40;;;;;;;8.45;68.57;100625.12;4406124;32;20080;-68
2021/05/25 02:52:53;;;;;;;3.50;3.40;;;;;;;8.48;68.08;100629.38;4398770;32;20116;-67
2021/05/25 02:55:20;;;;;;;3.30;3.20;;;;;;;8.54;68.09;100619.50;4406680;32;20080;-68
2021/05/25 02:57:45;;;;;;;3.53;3.42;;;;;;;8.56;68.32;100622.91;4398442;32;20231;-67
2021/05/25 03:00:22;;;;;;;3.40;3.30;;;;;;;8.59;67.67;100624.50;4388229;32;20878;-67
2021/05/25 03:02:47;;;;;;;3.60;3.50;;;;;;;8.60;68.16;100631.47;4389513;32;20088;-67
2021/05/25 03:05:12;;;;;;;3.45;3.35;;;;;;;8.61;67.83;100630.53;4394242;32;20100;-68
2021/05/25 03:07:38;;;;;;;3.55;3.45;;;;;;;8.62;68.15;100636.59;4389607;32;20486;-67
2021/05/25 03:10:06;;;;;;;3.40;3.30;;;;;;;8.67;68.32;100642.47;4386199;32;20073;-68
2021/05/25 03:12:31;;;;;;;3.60;3.50;;;;;;;8.65;67.69;100641.69;4389090;32;20084;-67
2021/05/25 03:14:57;;;;;;;3.40;3.30;;;;;;;8.69;67.99;100648.50;4391570;32;20087;-67
2021/05/25 03:17:22;;;;;;;3.40;3.30;;;;;;;8.68;68.12;100644.16;4391711;32;20461;-68
2021/05/25 03:19:48;;;;;;;3.60;3.50;;;;;;;8.65;68.55;100642.53;4386084;32;20092;-68
2021/05/25 03:22:14;;;;;;;3.60;3.50;;;;;;;8.65;68.81;100645.16;4402752;32;20219;-67
2021/05/25 03:24:39;;;;;;;3.80;3.70;;;;;;;8.66;69.74;100644.25;4384732;32;20501;-68
2021/05/25 03:27:05;;;;;;;3.60;3.50;;;;;;;8.65;69.82;100644.31;4392606;32;20062;-68
2021/05/25 03:29:30;;;;;;;3.35;3.25;;;;;;;8.65;69.35;100641.69;4400384;32;20131;-68
2021/05/25 03:31:55;;;;;;;3.58;3.47;;;;;;;8.63;69.11;100641.75;4374526;32;20614;-68
2021/05/25 03:34:21;;;;;;;3.40;3.30;;;;;;;8.55;70.16;100630.81;4379657;32;20080;-68
2021/05/25 03:36:46;;;;;;;3.70;3.60;;;;;;;8.59;70.45;100640.22;4388567;32;20163;-67
2021/05/25 03:39:11;;;;;;;3.60;3.50;;;;;;;8.55;69.87;100642.09;4370112;32;20069;-68
2021/05/25 03:41:37;;;;;;;3.40;3.30;;;;;;;8.50;70.58;100631.00;4399665;32;20516;-67
2021/05/25 03:44:02;;;;;;;3.85;3.67;;;;;;;8.54;70.75;100647.44;4398077;32;20073;-68
2021/05/25 03:46:28;;;;;;;3.50;3.40;;;;;;;8.52;71.09;100646.63;4398962;32;20532;-68
2021/05/25 03:48:53;;;;;;;3.42;3.33;;;;;;;8.51;71.77;100650.16;4401093;32;20077;-68
2021/05/25 03:51:19;;;;;;;3.47;3.37;;;;;;;8.55;71.42;100654.34;4398486;32;20450;-67
2021/05/25 03:53:44;;;;;;;3.40;3.30;;;;;;;8.11;71.04;100587.38;4397783;32;20179;-68
2021/05/25 03:58:51;;;;;;;3.65;3.55;;;;;;;8.44;71.22;100654.81;4390663;32;20065;-67
2021/05/25 04:01:20;;;;;;;3.35;3.25;;;;;;;8.48;71.32;100653.78;4399060;32;20084;-68
2021/05/25 04:03:49;;;;;;;3.62;3.45;;;;;;;8.49;72.19;100657.22;4399128;32;20077;-67
2021/05/25 04:06:15;;;;;;;3.50;3.40;;;;;;;8.49;72.44;100658.06;4385148;32;20784;-67
2021/05/25 04:08:40;;;;;;;3.40;3.30;;;;;;;8.47;72.97;100654.69;4399203;32;20076;-69
2021/05/25 04:11:06;;;;;;;3.50;3.40;;;;;;;8.46;73.57;100654.75;4397793;32;20085;-68
2021/05/25 04:13:31;;;;;;;4.00;3.80;;;;;;;8.43;73.85;100658.34;4376011;32;20802;-68
2021/05/25 04:15:57;;;;;;;3.25;3.15;;;;;;;7.54;75.19;100508.84;4398709;32;20089;-68
2021/05/25 04:18:22;;;;;;;3.60;3.50;;;;;;;8.42;75.64;100655.78;4399619;32;20648;-68
2021/05/25 04:20:47;;;;;;;3.70;3.60;;;;;;;8.40;75.78;100653.22;4394001;32;20079;-68
2021/05/25 04:23:13;;;;;;;3.40;3.30;;;;;;;8.42;76.57;100655.78;4396992;32;20087;-68
2021/05/25 04:25:38;;;;;;;3.85;3.67;;;;;;;8.45;76.10;100658.28;4388957;32;20069;-68
2021/05/25 04:28:04;;;;;;;3.30;3.20;;;;;;;8.41;77.02;100641.00;4398024;32;20282;-68
2021/05/25 04:30:29;;;;;;;3.37;3.28;;;;;;;8.47;76.49;100661.69;4401761;32;20654;-68
2021/05/25 04:32:55;;;;;;;3.53;3.42;;;;;;;8.33;77.38;100643.94;4384559;32;20093;-68
2021/05/25 04:35:20;;;;;;;3.45;3.35;;;;;;;8.53;77.09;100662.25;4399548;32;20658;-70
2021/05/25 04:37:46;;;;;;;3.70;3.60;;;;;;;8.62;76.24;100652.28;4385072;32;20065;-68
2021/05/25 04:40:11;;;;;;;3.50;3.40;;;;;;;8.79;76.03;100661.06;4377231;32;20694;-68
2021/05/25 04:42:37;;;;;;;3.50;3.40;;;;;;;8.87;75.66;100663.34;4399892;32;20118;-68
2021/05/25 04:45:03;;;;;;;3.47;3.37;;;;;;;8.95;76.23;100663.00;4403431;32;20511;-68
2021/05/25 04:47:28;;;;;;;3.60;3.50;;;;;;;9.09;76.32;100668.44;4399610;32;20080;-68
2021/05/25 04:49:54;;;;;;;3.47;3.37;;;;;;;9.23;75.23;100670.44;4399451;32;20073;-68
2021/05/25 04:52:19;;;;;;;3.70;3.60;;;;;;;9.27;74.39;100656.25;4387464;32;20088;-68
2021/05/25 04:54:44;;;;;;;3.50;3.40;;;;;;;9.33;73.50;100676.09;4397336;32;20073;-68
2021/05/25 04:57:10;;;;;;;3.80;3.70;;;;;;;9.29;74.90;100680.59;4397048;32;20693;-68
2021/05/25 04:59:36;;;;;;;4.40;4.12;;;;;;;9.28;74.36;100672.81;4397230;32;20212;-69
2021/05/25 05:02:01;;;;;;;3.65;3.55;;;;;;;9.23;75.07;100672.19;4398922;32;20107;-69
2021/05/25 05:04:26;;;;;;;3.50;3.40;;;;;;;9.06;75.39;100652.03;4396525;32;20080;-68
2021/05/25 05:06:52;;;;;;;3.70;3.60;;;;;;;8.34;75.40;100535.84;4400362;32;20478;-68
2021/05/25 05:09:17;;;;;;;3.70;3.60;;;;;;;9.29;75.30;100674.53;4397840;32;20062;-68
2021/05/25 05:11:42;;;;;;;3.60;3.50;;;;;;;9.31;75.12;100672.69;4402084;32;20080;-68
2021/05/25 05:14:08;;;;;;;3.67;3.58;;;;;;;9.29;75.04;100677.16;4395107;32;20167;-68
2021/05/25 05:16:33;;;;;;;3.67;3.58;;;;;;;9.28;76.51;100678.94;4399329;32;20087;-68
2021/05/25 05:18:58;;;;;;;3.60;3.50;;;;;;;9.26;75.87;100687.75;4397487;32;20158;-68
2021/05/25 05:21:24;;;;;;;3.60;3.50;;;;;;;9.11;76.37;100681.47;4401738;32;20080;-68
2021/05/25 05:23:49;;;;;;;3.70;3.60;;;;;;;9.07;76.56;100682.53;4394495;32;20084;-68
2021/05/25 05:26:14;;;;;;;3.58;3.47;;;;;;;9.05;77.07;100687.84;4389308;32;20586;-68
2021/05/25 05:28:40;;;;;;;3.60;3.50;;;;;;;8.95;78.08;100689.19;4394981;32;20287;-68
2021/05/25 05:31:05;;;;;;;3.70;3.60;;;;;;;8.90;78.11;100683.28;4398256;32;20073;-68
2021/05/25 05:33:30;;;;;;;4.20;4.00;;;;;;;8.82;78.84;100690.66;4395044;32;21191;-68
2021/05/25 05:35:56;;;;;;;3.65;3.55;;;;;;;7.63;79.01;100528.47;4398041;32;20080;-68
2021/05/25 05:38:23;;;;;;;3.60;3.50;;;;;;;8.62;79.26;100687.16;4402105;32;20073;-70
2021/05/25 05:40:49;;;;;;;3.75;3.65;;;;;;;8.63;79.12;100691.47;4385928;32;20752;-68
2021/05/25 05:43:14;;;;;;;3.50;3.40;;;;;;;8.58;79.48;100691.69;4401588;32;20111;-68
2021/05/25 05:45:39;;;;;;;3.70;3.60;;;;;;;8.58;79.60;100696.06;4408663;32;20092;-68
2021/05/25 05:48:05;;;;;;;3.70;3.60;;;;;;;8.62;79.78;100689.78;4395748;32;20069;-67
2021/05/25 05:50:31;;;;;;;3.80;3.70;;;;;;;8.59;79.64;100698.59;4406921;32;20060;-69
2021/05/25 05:52:56;;;;;;;3.72;3.62;;;;;;;8.60;80.33;100696.84;4396763;32;20572;-68
2021/05/25 05:55:22;;;;;;;3.50;3.40;;;;;;;8.63;79.42;100695.88;4396219;32;20220;-68
2021/05/25 05:57:47;;;;;;;3.60;3.50;;;;;;;8.57;80.27;100702.22;4411773;32;20543;-70
2021/05/25 06:00:13;;;;;;;3.45;3.35;;;;;;;8.56;80.04;100700.53;4396025;32;20138;-68
2021/05/25 06:02:39;;;;;;;3.75;3.65;;;;;;;8.55;80.46;100707.50;4388325;32;20094;-68
2021/05/25 06:05:05;;;;;;;3.30;3.20;;;;;;;8.57;80.17;100702.22;4392615;32;20575;-68
2021/05/25 06:07:30;;;;;;;3.65;3.55;;;;;;;8.64;80.47;100703.66;4413808;32;20334;-69
2021/05/25 06:09:58;;;;;;;3.53;3.42;;;;;;;8.73;79.36;100702.38;4406277;32;26112;-68
2021/05/25 06:12:23;;;;;;;3.55;3.45;;;;;;;8.58;79.30;100672.53;4412629;32;20092;-68
2021/05/25 06:14:48;;;;;;;3.40;3.30;;;;;;;8.84;78.61;100704.50;4408622;32;20069;-69
2021/05/25 06:17:14;;;;;;;3.40;3.30;;;;;;;8.98;79.08;100702.16;4396756;32;20247;-68
2021/05/25 06:19:39;;;;;;;3.70;3.60;;;;;;;9.17;79.71;100705.59;4407330;32;20071;-68
2021/05/25 06:22:04;;;;;;;3.50;3.40;;;;;;;9.48;77.56;100708.53;4409168;32;20276;-68
2021/05/25 06:24:30;;;;;;;3.55;3.45;;;;;;;9.58;77.24;100708.06;4409510;32;20564;-68
2021/05/25 06:26:55;;;;;;;3.78;3.67;;;;;;;9.58;77.07;100708.06;4401741;32;20100;-68
2021/05/25 06:29:20;;;;;;;3.60;3.50;;;;;;;9.60;77.56;100705.34;4376052;32;20135;-69
2021/05/25 06:31:46;;;;;;;3.60;3.50;;;;;;;9.47;76.66;100712.09;4407514;32;20137;-68
2021/05/25 06:34:11;;;;;;;3.60;3.50;;;;;;;9.29;77.26;100705.97;4405066;32;20081;-68
2021/05/25 06:36:37;;;;;;;3.60;3.50;;;;;;;9.24;78.34;100707.94;4396272;32;20084;-68
2021/05/25 06:39:02;;;;;;;3.53;3.42;;;;;;;9.09;78.56;100705.09;4396613;32;20076;-68
2021/05/25 06:41:28;;;;;;;4.72;4.53;;;;;;;9.08;78.53;100708.66;4397440;32;20253;-68
2021/05/25 06:43:53;;;;;;;3.80;3.70;;;;;;;9.17;79.48;100712.59;4390820;32;20085;-69
2021/05/25 06:46:18;;;;;;;4.30;4.10;;;;;;;8.49;78.74;100579.59;4409041;32;20097;-70
2021/05/25 06:48:44;;;;;;;3.65;3.55;;;;;;;9.56;76.99;100709.03;4406694;32;20065;-68
2021/05/25 06:51:09;;;;;;;3.80;3.70;;;;;;;9.66;76.07;100709.44;4390771;32;20066;-67
2021/05/25 06:53:35;;;;;;;3.78;3.67;;;;;;;9.99;76.25;100720.91;4403667;32;20093;-67
2021/05/25 06:56:00;;;;;;;4.10;3.90;;;;;;;10.23;74.17;100720.59;4390712;32;20657;-67
2021/05/25 06:58:25;;;;;;;3.62;3.53;;;;;;;10.22;72.77;100725.94;4391291;32;20096;-67
2021/05/25 07:00:51;;;;;;;3.80;3.70;;;;;;;9.73;75.12;100735.28;4372545;32;20207;-67
2021/05/25 07:03:16;;;;;;;3.80;3.70;;;;;;;9.56;77.26;100727.38;4406617;32;20162;-66
2021/05/25 07:05:42;;;;;;;3.78;3.67;;;;;;;9.76;77.56;100742.13;4398174;32;20073;-66
2021/05/25 07:08:07;;;;;;;3.90;3.75;;;;;;;9.16;76.67;100620.13;4393987;32;20084;-66
2021/05/25 07:10:32;;;;;;;3.50;3.40;;;;;;;9.90;75.46;100742.34;4398002;32;20069;-67
2021/05/25 07:12:58;;;;;;;3.70;3.60;;;;;;;9.56;74.62;100730.84;4395700;32;20092;-66
2021/05/25 07:15:23;;;;;;;3.80;3.70;;;;;;;10.29;73.51;100753.56;4414144;32;20452;-65
2021/05/25 07:17:58;;;;;;;4.00;3.80;;;;;;;10.05;73.32;100740.72;4405708;32;20697;-65
2021/05/25 07:20:27;;;;;;;3.70;3.60;;;;;;;9.87;72.26;100758.22;4404039;32;20785;-69
2021/05/25 07:22:54;;;;;;;3.60;3.50;;;;;;;9.62;71.83;100769.00;4405304;32;20101;-68
2021/05/25 07:25:23;;;;;;;6.18;5.87;;;;;;;9.21;73.89;100766.53;4397911;32;20089;-68
2021/05/25 07:27:48;;;;;;;4.78;4.57;;;;;;;9.13;74.84;100763.41;4404779;32;20080;-66
2021/05/25 07:30:14;;;;;;;3.80;3.70;;;;;;;9.09;75.22;100764.47;4409791;32;20068;-69
2021/05/25 07:32:39;;;;;;;3.70;3.60;;;;;;;9.12;73.64;100751.22;4408930;32;20073;-69
2021/05/25 07:35:05;;;;;;;3.80;3.70;;;;;;;9.03;74.51;100751.66;4404405;32;20095;-67
2021/05/25 07:37:31;;;;;;;3.50;3.40;;;;;;;9.04;73.64;100753.34;4394268;32;20065;-65
2021/05/25 07:39:56;;;;;;;3.50;3.40;;;;;;;8.43;74.03;100707.19;4398792;32;20204;-66
2021/05/25 07:42:22;;;;;;;3.70;3.60;;;;;;;8.94;75.97;100764.25;4411145;32;20543;-63
2021/05/25 07:44:47;;;;;;;3.80;3.70;;;;;;;9.37;75.10;100764.91;4408401;32;20082;-68
2021/05/25 07:47:12;;;;;;;3.60;3.50;;;;;;;9.91;74.41;100749.28;4406040;32;20369;-68
2021/05/25 07:49:38;;;;;;;3.80;3.70;;;;;;;10.35;72.36;100771.66;4405495;32;20134;-69
2021/05/25 07:52:03;;;;;;;3.70;3.60;;;;;;;10.59;70.53;100761.69;4410071;32;20073;-68
2021/05/25 07:54:29;;;;;;;4.30;4.10;;;;;;;10.67;70.20;100735.03;4370788;32;20100;-68
2021/05/25 07:56:54;;;;;;;3.75;3.65;;;;;;;10.86;71.11;100766.41;4409093;32;20595;-68
2021/05/25 07:59:19;;;;;;;3.65;3.55;;;;;;;11.29;70.61;100779.91;4396637;32;20602;-68
2021/05/25 08:01:45;;;;;;;4.10;3.90;;;;;;;11.49;68.79;100779.69;4411521;32;20088;-68
2021/05/25 08:04:10;;;;;;;4.62;4.43;;;;;;;11.72;69.00;100772.28;4392353;32;20180;-68
2021/05/25 08:06:36;;;;;;;4.30;4.10;;;;;;;11.38;67.08;100747.88;4397074;32;20096;-68
2021/05/25 08:09:02;;;;;;;4.15;3.95;;;;;;;11.89;66.45;100785.38;4390364;32;20065;-68
2021/05/25 08:11:27;;;;;;;3.97;3.80;;;;;;;11.36;67.27;100797.88;4397292;32;20084;-68
2021/05/25 08:13:52;;;;;;;4.20;4.00;;;;;;;11.30;67.93;100798.19;4397957;32;20065;-69
2021/05/25 08:16:21;;;;;;;4.10;3.90;;;;;;;11.14;68.77;100807.84;4404622;32;20076;-69
2021/05/25 08:19:08;;;;;;;4.00;3.80;;;;;;;10.85;67.73;100791.00;4411577;32;20637;-69
2021/05/25 08:21:32;;;;;;;4.28;4.07;;;;;;;10.96;68.01;100815.78;4404896;32;20081;-68
2021/05/25 08:23:57;;;;;;;4.00;3.80;;;;;;;10.34;70.92;100812.78;4399850;32;20521;-69
2021/05/25 08:26:26;;;;;;;4.45;4.25;;;;;;;10.64;70.00;100834.91;4404708;32;20066;-68
2021/05/25 08:28:51;;;;;;;4.10;3.90;;;;;;;10.88;69.44;100835.44;4407615;32;20099;-69
2021/05/25 08:31:16;;;;;;;3.87;3.78;;;;;;;11.03;68.84;100831.22;4398924;32;20085;-68
2021/05/25 08:33:42;;;;;;;4.15;3.95;;;;;;;11.20;69.80;100843.44;4406699;32;20100;-69
2021/05/25 08:36:09;;;;;;;4.05;3.85;;;;;;;11.15;69.48;100836.66;4394681;32;20915;-69
2021/05/25 08:38:34;;;;;;;4.40;4.20;;;;;;;11.46;67.11;100842.91;4407981;32;20627;-68
2021/05/25 08:41:00;;;;;;;4.20;4.00;;;;;;;11.49;66.87;100839.28;4393414;32;20077;-66
2021/05/25 08:43:26;;;;;;;4.05;3.85;;;;;;;11.74;67.88;100826.47;4411418;32;20596;-66
2021/05/25 08:45:51;;;;;;;4.37;4.18;;;;;;;11.86;66.29;100832.84;4405976;32;20142;-66
2021/05/25 08:48:16;;;;;;;3.95;3.78;;;;;;;12.46;65.71;100837.37;4397944;32;20223;-66
2021/05/25 08:50:42;;;;;;;4.20;4.00;;;;;;;12.18;65.98;100832.84;4402897;32;20069;-67
2021/05/25 08:53:07;;;;;;;4.30;4.10;;;;;;;12.40;64.65;100840.37;4393670;32;20065;-66
2021/05/25 08:55:34;;;;;;;4.07;3.87;;;;;;;12.92;64.04;100849.66;4404603;32;20222;-67
2021/05/25 08:57:59;;;;;;;4.00;3.80;;;;;;;12.54;63.83;100850.09;4380632;32;20147;-66
2021/05/25 09:00:27;;;;;;;4.18;3.97;;;;;;;11.98;63.96;100853.22;4399926;32;20687;-66
2021/05/25 09:02:53;;;;;;;4.30;4.10;;;;;;;12.19;64.52;100860.87;4405768;32;20084;-66
2021/05/25 09:05:19;;;;;;;3.87;3.78;;;;;;;12.35;65.06;100859.06;4398807;32;20101;-66
2021/05/25 09:07:47;;;;;;;4.68;4.47;;;;;;;12.14;62.86;100845.34;4384764;32;20555;-66
2021/05/25 09:10:21;;;;;;;4.15;3.95;;;;;;;12.35;62.89;100860.87;4400189;32;20134;-66
2021/05/25 09:12:48;;;;;;;4.30;4.10;;;;;;;12.59;61.87;100869.12;4393728;32;20381;-66
2021/05/25 09:15:16;;;;;;;3.92;3.80;;;;;;;12.73;61.78;100866.53;4409414;32;20083;-66
2021/05/25 09:17:41;;;;;;;4.20;4.00;;;;;;;12.62;62.52;100862.84;4381271;32;20658;-66
2021/05/25 09:20:09;;;;;;;4.20;4.00;;;;;;;12.34;62.57;100865.25;4403016;32;20079;-66
2021/05/25 09:22:38;;;;;;;4.28;4.07;;;;;;;12.33;63.54;100871.47;4381824;32;20909;-67
2021/05/25 09:25:23;;;;;;;4.12;3.92;;;;;;;12.68;64.81;100871.22;4409458;32;20065;-65
2021/05/25 09:28:00;;;;;;;4.55;4.35;;;;;;;12.82;62.10;100864.31;4402304;32;20080;-65
2021/05/25 09:30:28;;;;;;;4.07;3.87;;;;;;;12.40;63.24;100829.84;4409799;32;20091;-66
2021/05/25 09:33:04;;;;;;;4.57;4.37;;;;;;;13.09;62.74;100862.66;4405159;32;20637;-67
2021/05/25 09:35:34;;;;;;;4.50;4.30;;;;;;;12.68;60.55;100789.59;4407394;32;20084;-69
2021/05/25 09:38:01;;;;;;;4.87;4.68;;;;;;;13.93;60.79;100843.44;4390402;32;20085;-69
2021/05/25 09:40:31;;;;;;;4.22;4.03;;;;;;;13.70;59.41;100849.31;4398333;32;20087;-68
2021/05/25 09:43:22;;;;;;;4.40;4.20;;;;;;;13.51;61.41;100866.28;4394268;32;20073;-69
2021/05/25 09:46:08;;;;;;;4.37;4.18;;;;;;;12.55;65.10;100893.94;4409015;32;20087;-69
2021/05/25 09:48:42;;;;;;;4.35;4.15;;;;;;;11.40;70.02;100914.19;4394351;32;20531;-69
2021/05/25 09:51:24;;;;;;;4.10;3.90;;;;;;;10.73;73.48;100911.44;4410095;32;20476;-69
2021/05/25 09:53:50;;;;;;;4.47;4.28;;;;;;;10.36;73.91;100909.75;4408543;32;20498;-70
2021/05/25 09:56:25;;;;;;;4.40;4.20;;;;;;;10.44;75.57;100925.13;4409567;32;20096;-70
2021/05/25 09:58:50;;;;;;;4.72;4.53;;;;;;;10.13;77.25;100921.31;4395666;32;20330;-70
2021/05/25 10:01:15;;;;;;;4.45;4.25;;;;;;;10.12;77.54;100930.94;4396017;32;20772;-69
2021/05/25 10:03:50;;;;;;;3.80;3.70;;;;;;;9.16;77.54;100800.78;4395676;32;20299;-69
2021/05/25 10:06:16;;;;;;;3.90;3.80;;;;;;;9.95;78.80;100946.59;4408753;32;20088;-69
2021/05/25 10:08:43;;;;;;;3.80;3.70;;;;;;;10.01;78.51;100948.09;4396102;32;20586;-69
2021/05/25 10:11:09;;;;;;;4.05;3.85;;;;;;;9.99;78.18;100930.66;4395077;32;20066;-69
2021/05/25 10:13:34;;;;;;;3.97;3.80;;;;;;;9.98;77.26;100928.97;4398959;32;20596;-68
2021/05/25 10:16:01;;;;;;;3.80;3.70;;;;;;;9.39;79.99;100937.72;4393731;32;20099;-69
2021/05/25 10:21:11;;;;;;;4.00;3.80;;;;;;;9.13;81.40;100928.37;4394446;32;20588;-69
2021/05/25 10:23:37;;;;;;;4.40;4.10;;;;;;;9.62;80.94;100955.03;4409543;32;20085;-69
2021/05/25 10:26:08;;;;;;;3.80;3.70;;;;;;;10.08;79.02;100954.75;4405109;32;20533;-68
2021/05/25 10:28:34;;;;;;;4.00;3.80;;;;;;;10.41;78.45;100956.78;4404318;32;20402;-68
2021/05/25 10:31:02;;;;;;;3.80;3.70;;;;;;;10.86;76.65;100950.19;4390360;32;20077;-69
2021/05/25 10:33:28;;;;;;;3.80;3.70;;;;;;;11.16;75.51;100951.31;4396282;32;20083;-69
2021/05/25 10:36:09;;;;;;;4.00;3.80;;;;;;;11.37;72.91;100943.25;4400996;32;20518;-69
2021/05/25 10:38:53;;;;;;;4.00;3.80;;;;;;;11.31;75.04;100944.41;4408951;32;20085;-67
2021/05/25 10:41:26;;;;;;;4.20;4.00;;;;;;;11.64;72.14;100942.75;4411749;32;20258;-67
2021/05/25 10:43:52;;;;;;;4.05;3.85;;;;;;;11.24;71.89;100943.03;4400482;32;20267;-67
2021/05/25 10:46:21;;;;;;;3.62;3.53;;;;;;;10.98;74.58;100973.22;4399563;32;20207;-67
2021/05/25 10:51:51;;;;;;;5.65;5.15;;;;;;;10.96;73.59;100978.56;4410553;32;20776;-66
2021/05/25 10:54:30;;;;;;;4.00;3.85;;;;;;;11.33;72.74;100984.59;4412499;32;20251;-67
2021/05/25 10:56:56;;;;;;;4.18;3.97;;;;;;;11.11;70.56;100979.59;4405355;32;20080;-67
2021/05/25 10:59:21;;;;;;;4.05;3.85;;;;;;;10.97;70.64;100974.16;4399642;32;20077;-66
2021/05/25 11:01:57;;;;;;;4.10;3.90;;;;;;;11.27;69.99;100981.44;4408311;32;20138;-67
2021/05/25 11:04:23;;;;;;;3.80;3.70;;;;;;;11.35;70.07;100984.53;4409180;32;20302;-65
2021/05/25 11:06:49;;;;;;;4.12;3.92;;;;;;;11.56;72.17;100990.47;4407847;32;20559;-65
2021/05/25 11:09:24;;;;;;;4.10;3.90;;;;;;;12.21;71.19;100990.56;4413024;32;20081;-66
2021/05/25 11:12:08;;;;;;;4.50;4.30;;;;;;;13.18;69.60;100988.59;4396925;32;20092;-65
2021/05/25 11:14:33;;;;;;;4.18;3.97;;;;;;;13.15;67.86;100946.63;4408336;32;20092;-66
2021/05/25 11:17:28;;;;;;;4.20;4.00;;;;;;;12.97;64.82;100968.78;4396022;32;20720;-66
2021/05/25 11:20:09;;;;;;;4.20;4.00;;;;;;;12.48;63.33;100961.88;4412697;32;20074;-65
2021/05/25 11:22:38;;;;;;;4.05;3.85;;;;;;;12.00;66.75;100937.31;4394117;32;20783;-65
2021/05/25 11:25:06;;;;;;;4.05;3.85;;;;;;;12.11;66.20;100952.53;4402220;32;20089;-66
2021/05/25 11:27:45;;;;;;;4.30;4.10;;;;;;;12.66;67.20;100954.72;4394390;32;20202;-67
2021/05/25 11:30:30;;;;;;;4.10;3.90;;;;;;;12.80;68.32;100961.00;4406249;32;20192;-65
2021/05/25 11:32:56;;;;;;;4.30;4.10;;;;;;;13.01;66.37;100956.25;4406184;32;20089;-66
2021/05/25 11:35:22;;;;;;;4.25;4.05;;;;;;;13.02;65.84;100881.56;4397935;32;20102;-66
2021/05/25 11:37:53;;;;;;;4.37;4.18;;;;;;;14.31;64.97;100958.91;4384256;32;20081;-66
2021/05/25 11:40:23;;;;;;;4.40;4.20;;;;;;;14.24;59.71;100954.94;4397687;32;20092;-66